sensor_id;sensor_type;location;lat;lon;timestamp;temperature;humidity
19892;DHT22;10108;50.142;8.724;2022-12-07T00:01:28;6.20;99.90
19892;DHT22;10108;50.142;8.724;2022-12-07T00:03:56;6.30;99.90
19892;DHT22;10108;50.142;8.724;2022-12-07T00:06:26;6.30;99.90
19892;DHT22;10108;50.142;8.724;2022-12-07T00:08:52;6.30;99.90
19892;DHT22;10108;50.142;8.724;2022-12-07T00:11:21;6.30;99.90
19892;DHT22;10108;50.142;8.724;2022-12-07T00:13:51;6.30;99.90
19892;DHT22;10108;50.142;8.724;2022-12-07T00:16:20;6.20;99.90
19892;DHT22;10108;50.142;8.724;2022-12-07T00:18:46;6.20;99.90
19892;DHT22;10108;50.142;8.724;2022-12-07T00:23:42;6.20;99.90
19892;DHT22;10108;50.142;8.724;2022-12-07T00:26:31;6.20;99.90
19892;DHT22;10108;50.142;8.724;2022-12-07T00:29:05;6.20;99.90
19892;DHT22;10108;50.142;8.724;2022-12-07T00:31:34;6.20;99.90
19892;DHT22;10108;50.142;8.724;2022-12-07T00:34:01;6.30;99.90
19892;DHT22;10108;50.142;8.724;2022-12-07T00:36:28;6.30;99.90
19892;DHT22;10108;50.142;8.724;2022-12-07T00:38:54;6.20;99.90
19892;DHT22;10108;50.142;8.724;2022-12-07T00:41:23;6.20;99.90
19892;DHT22;10108;50.142;8.724;2022-12-07T00:43:50;6.20;99.90
19892;DHT22;10108;50.142;8.724;2022-12-07T00:46:17;6.20;99.90
19892;DHT22;10108;50.142;8.724;2022-12-07T00:48:43;6.20;99.90
19892;DHT22;10108;50.142;8.724;2022-12-07T00:51:11;6.30;99.90
19892;DHT22;10108;50.142;8.724;2022-12-07T00:53:38;6.30;99.90
19892;DHT22;10108;50.142;8.724;2022-12-07T00:56:25;6.40;99.90
19892;DHT22;10108;50.142;8.724;2022-12-07T00:59:02;6.40;99.90
19892;DHT22;10108;50.142;8.724;2022-12-07T01:01:31;6.30;99.90
19892;DHT22;10108;50.142;8.724;2022-12-07T01:03:58;6.20;99.90
19892;DHT22;10108;50.142;8.724;2022-12-07T01:06:25;6.20;99.90
19892;DHT22;10108;50.142;8.724;2022-12-07T01:08:51;6.20;99.90
19892;DHT22;10108;50.142;8.724;2022-12-07T01:11:20;6.20;99.90
19892;DHT22;10108;50.142;8.724;2022-12-07T01:13:50;6.20;99.90
19892;DHT22;10108;50.142;8.724;2022-12-07T01:16:16;6.30;99.90
19892;DHT22;10108;50.142;8.724;2022-12-07T01:18:46;6.30;99.90
19892;DHT22;10108;50.142;8.724;2022-12-07T01:21:21;6.30;99.90
19892;DHT22;10108;50.142;8.724;2022-12-07T01:23:48;6.30;99.90
19892;DHT22;10108;50.142;8.724;2022-12-07T01:26:17;6.30;99.90
19892;DHT22;10108;50.142;8.724;2022-12-07T01:28:44;6.30;99.90
19892;DHT22;10108;50.142;8.724;2022-12-07T01:31:15;6.40;99.90
19892;DHT22;10108;50.142;8.724;2022-12-07T01:33:43;6.40;99.90
19892;DHT22;10108;50.142;8.724;2022-12-07T01:36:23;6.50;99.90
19892;DHT22;10108;50.142;8.724;2022-12-07T01:38:53;6.50;99.90
19892;DHT22;10108;50.142;8.724;2022-12-07T01:41:23;6.50;99.90
19892;DHT22;10108;50.142;8.724;2022-12-07T01:44:15;6.50;99.90
19892;DHT22;10108;50.142;8.724;2022-12-07T01:46:55;6.50;99.90
19892;DHT22;10108;50.142;8.724;2022-12-07T01:49:26;6.40;99.90
19892;DHT22;10108;50.142;8.724;2022-12-07T01:52:02;6.40;99.90
19892;DHT22;10108;50.142;8.724;2022-12-07T01:54:30;6.40;99.90
19892;DHT22;10108;50.142;8.724;2022-12-07T01:56:56;6.40;99.90
19892;DHT22;10108;50.142;8.724;2022-12-07T01:59:24;6.40;99.90
19892;DHT22;10108;50.142;8.724;2022-12-07T02:01:53;6.30;99.90
19892;DHT22;10108;50.142;8.724;2022-12-07T02:04:21;6.30;99.90
19892;DHT22;10108;50.142;8.724;2022-12-07T02:06:48;6.30;99.90
19892;DHT22;10108;50.142;8.724;2022-12-07T02:09:15;6.30;99.90
19892;DHT22;10108;50.142;8.724;2022-12-07T02:11:41;6.30;99.90
19892;DHT22;10108;50.142;8.724;2022-12-07T02:14:08;6.30;99.90
19892;DHT22;10108;50.142;8.724;2022-12-07T02:17:28;6.30;99.90
19892;DHT22;10108;50.142;8.724;2022-12-07T02:20:23;6.40;99.90
19892;DHT22;10108;50.142;8.724;2022-12-07T02:28:56;6.30;99.90
19892;DHT22;10108;50.142;8.724;2022-12-07T02:31:31;6.30;99.90
19892;DHT22;10108;50.142;8.724;2022-12-07T02:34:04;6.30;99.90
19892;DHT22;10108;50.142;8.724;2022-12-07T02:36:36;6.30;99.90
19892;DHT22;10108;50.142;8.724;2022-12-07T02:39:17;6.30;99.90
19892;DHT22;10108;50.142;8.724;2022-12-07T02:41:52;6.30;99.90
19892;DHT22;10108;50.142;8.724;2022-12-07T02:44:25;6.30;99.90
19892;DHT22;10108;50.142;8.724;2022-12-07T02:46:57;6.30;99.90
19892;DHT22;10108;50.142;8.724;2022-12-07T02:49:25;6.20;99.90
19892;DHT22;10108;50.142;8.724;2022-12-07T02:51:53;6.30;99.90
19892;DHT22;10108;50.142;8.724;2022-12-07T02:54:20;6.20;99.90
19892;DHT22;10108;50.142;8.724;2022-12-07T02:56:52;6.20;99.90
19892;DHT22;10108;50.142;8.724;2022-12-07T03:05:13;6.10;99.90
19892;DHT22;10108;50.142;8.724;2022-12-07T03:10:48;6.20;99.90
19892;DHT22;10108;50.142;8.724;2022-12-07T03:18:38;6.20;99.90
19892;DHT22;10108;50.142;8.724;2022-12-07T03:21:11;6.10;99.90
19892;DHT22;10108;50.142;8.724;2022-12-07T03:23:41;6.10;99.90
19892;DHT22;10108;50.142;8.724;2022-12-07T03:26:10;6.10;99.90
19892;DHT22;10108;50.142;8.724;2022-12-07T03:28:41;6.20;99.90
19892;DHT22;10108;50.142;8.724;2022-12-07T03:31:26;6.20;99.90
19892;DHT22;10108;50.142;8.724;2022-12-07T03:34:11;6.30;99.90
19892;DHT22;10108;50.142;8.724;2022-12-07T03:36:53;6.20;99.90
19892;DHT22;10108;50.142;8.724;2022-12-07T03:39:28;6.20;99.90
19892;DHT22;10108;50.142;8.724;2022-12-07T03:41:57;6.20;99.90
19892;DHT22;10108;50.142;8.724;2022-12-07T03:44:24;6.20;99.90
19892;DHT22;10108;50.142;8.724;2022-12-07T03:47:04;6.20;99.90
19892;DHT22;10108;50.142;8.724;2022-12-07T03:49:40;6.20;99.90
19892;DHT22;10108;50.142;8.724;2022-12-07T03:57:26;6.10;99.90
19892;DHT22;10108;50.142;8.724;2022-12-07T03:59:55;6.10;99.90
19892;DHT22;10108;50.142;8.724;2022-12-07T04:02:23;6.10;99.90
19892;DHT22;10108;50.142;8.724;2022-12-07T04:04:51;6.10;99.90
19892;DHT22;10108;50.142;8.724;2022-12-07T04:07:17;6.10;99.90
19892;DHT22;10108;50.142;8.724;2022-12-07T04:09:43;6.10;99.90
19892;DHT22;10108;50.142;8.724;2022-12-07T04:12:09;6.10;99.90
19892;DHT22;10108;50.142;8.724;2022-12-07T04:14:35;6.00;99.90
19892;DHT22;10108;50.142;8.724;2022-12-07T04:17:01;6.00;99.90
19892;DHT22;10108;50.142;8.724;2022-12-07T04:19:32;6.00;99.90
19892;DHT22;10108;50.142;8.724;2022-12-07T04:22:01;6.00;99.90
19892;DHT22;10108;50.142;8.724;2022-12-07T04:24:28;6.00;99.90
19892;DHT22;10108;50.142;8.724;2022-12-07T04:26:54;6.00;99.90
19892;DHT22;10108;50.142;8.724;2022-12-07T04:29:21;6.10;99.90
19892;DHT22;10108;50.142;8.724;2022-12-07T04:31:48;6.10;99.90
19892;DHT22;10108;50.142;8.724;2022-12-07T04:34:14;6.10;99.90
19892;DHT22;10108;50.142;8.724;2022-12-07T04:36:41;6.00;99.90
19892;DHT22;10108;50.142;8.724;2022-12-07T04:39:27;6.00;99.90
19892;DHT22;10108;50.142;8.724;2022-12-07T04:41:53;6.00;99.90
19892;DHT22;10108;50.142;8.724;2022-12-07T04:44:20;6.10;99.90
19892;DHT22;10108;50.142;8.724;2022-12-07T04:46:47;6.10;99.90
19892;DHT22;10108;50.142;8.724;2022-12-07T04:49:14;6.20;99.90
19892;DHT22;10108;50.142;8.724;2022-12-07T04:51:41;6.20;99.90
19892;DHT22;10108;50.142;8.724;2022-12-07T04:54:07;6.20;99.90
19892;DHT22;10108;50.142;8.724;2022-12-07T04:56:34;6.30;99.90
19892;DHT22;10108;50.142;8.724;2022-12-07T04:59:01;6.30;99.90
19892;DHT22;10108;50.142;8.724;2022-12-07T05:01:28;6.30;99.90
19892;DHT22;10108;50.142;8.724;2022-12-07T05:03:54;6.30;99.90
19892;DHT22;10108;50.142;8.724;2022-12-07T05:06:20;6.30;99.90
19892;DHT22;10108;50.142;8.724;2022-12-07T05:08:46;6.40;99.90
19892;DHT22;10108;50.142;8.724;2022-12-07T05:11:12;6.30;99.90
19892;DHT22;10108;50.142;8.724;2022-12-07T05:13:59;6.30;99.90
19892;DHT22;10108;50.142;8.724;2022-12-07T05:16:25;6.30;99.90
19892;DHT22;10108;50.142;8.724;2022-12-07T05:18:51;6.30;99.90
19892;DHT22;10108;50.142;8.724;2022-12-07T05:21:18;6.30;99.90
19892;DHT22;10108;50.142;8.724;2022-12-07T05:23:44;6.30;99.90
19892;DHT22;10108;50.142;8.724;2022-12-07T05:26:10;6.30;99.90
19892;DHT22;10108;50.142;8.724;2022-12-07T05:28:36;6.30;99.90
19892;DHT22;10108;50.142;8.724;2022-12-07T05:31:02;6.30;99.90
19892;DHT22;10108;50.142;8.724;2022-12-07T05:33:29;6.30;99.90
19892;DHT22;10108;50.142;8.724;2022-12-07T05:35:55;6.30;99.90
19892;DHT22;10108;50.142;8.724;2022-12-07T05:38:21;6.30;99.90
19892;DHT22;10108;50.142;8.724;2022-12-07T05:40:47;6.30;99.90
19892;DHT22;10108;50.142;8.724;2022-12-07T05:43:13;6.30;99.90
19892;DHT22;10108;50.142;8.724;2022-12-07T05:45:39;6.30;99.90
19892;DHT22;10108;50.142;8.724;2022-12-07T05:48:06;6.40;99.90
19892;DHT22;10108;50.142;8.724;2022-12-07T05:50:32;6.40;99.90
19892;DHT22;10108;50.142;8.724;2022-12-07T05:53:01;6.40;99.90
19892;DHT22;10108;50.142;8.724;2022-12-07T05:55:27;6.40;99.90
19892;DHT22;10108;50.142;8.724;2022-12-07T05:57:53;6.40;99.90
19892;DHT22;10108;50.142;8.724;2022-12-07T06:00:38;6.30;99.90
19892;DHT22;10108;50.142;8.724;2022-12-07T06:03:04;6.40;99.90
19892;DHT22;10108;50.142;8.724;2022-12-07T06:05:30;6.40;99.90
19892;DHT22;10108;50.142;8.724;2022-12-07T06:07:56;6.40;99.90
19892;DHT22;10108;50.142;8.724;2022-12-07T06:10:22;6.50;99.90
19892;DHT22;10108;50.142;8.724;2022-12-07T06:12:48;6.40;99.90
19892;DHT22;10108;50.142;8.724;2022-12-07T06:15:14;6.40;99.90
19892;DHT22;10108;50.142;8.724;2022-12-07T06:17:41;6.40;99.90
19892;DHT22;10108;50.142;8.724;2022-12-07T06:20:07;6.40;99.90
19892;DHT22;10108;50.142;8.724;2022-12-07T06:22:33;6.50;99.90
19892;DHT22;10108;50.142;8.724;2022-12-07T06:24:59;6.50;99.90
19892;DHT22;10108;50.142;8.724;2022-12-07T06:27:25;6.50;99.90
19892;DHT22;10108;50.142;8.724;2022-12-07T06:29:51;6.50;99.90
19892;DHT22;10108;50.142;8.724;2022-12-07T06:32:17;6.50;99.90
19892;DHT22;10108;50.142;8.724;2022-12-07T06:34:43;6.50;99.90
19892;DHT22;10108;50.142;8.724;2022-12-07T06:37:10;6.50;99.90
19892;DHT22;10108;50.142;8.724;2022-12-07T06:39:36;6.50;99.90
19892;DHT22;10108;50.142;8.724;2022-12-07T06:42:02;6.50;99.90
19892;DHT22;10108;50.142;8.724;2022-12-07T06:44:28;6.50;99.90
19892;DHT22;10108;50.142;8.724;2022-12-07T06:46:54;6.50;99.90
19892;DHT22;10108;50.142;8.724;2022-12-07T06:49:20;6.50;99.90
19892;DHT22;10108;50.142;8.724;2022-12-07T06:51:46;6.50;99.90
19892;DHT22;10108;50.142;8.724;2022-12-07T06:54:14;6.40;99.90
19892;DHT22;10108;50.142;8.724;2022-12-07T06:56:40;6.40;99.90
19892;DHT22;10108;50.142;8.724;2022-12-07T06:59:07;6.40;99.90
19892;DHT22;10108;50.142;8.724;2022-12-07T07:01:35;6.50;99.90
19892;DHT22;10108;50.142;8.724;2022-12-07T07:04:01;6.50;99.90
19892;DHT22;10108;50.142;8.724;2022-12-07T07:06:27;6.50;99.90
19892;DHT22;10108;50.142;8.724;2022-12-07T07:08:54;6.50;99.90
19892;DHT22;10108;50.142;8.724;2022-12-07T07:11:20;6.50;99.90
19892;DHT22;10108;50.142;8.724;2022-12-07T07:13:46;6.50;99.90
19892;DHT22;10108;50.142;8.724;2022-12-07T07:16:12;6.40;99.90
19892;DHT22;10108;50.142;8.724;2022-12-07T07:18:38;6.40;99.90
19892;DHT22;10108;50.142;8.724;2022-12-07T07:21:05;6.40;99.90
19892;DHT22;10108;50.142;8.724;2022-12-07T07:23:31;6.40;99.90
19892;DHT22;10108;50.142;8.724;2022-12-07T07:25:57;6.30;99.90
19892;DHT22;10108;50.142;8.724;2022-12-07T07:28:23;6.40;99.90
19892;DHT22;10108;50.142;8.724;2022-12-07T07:30:49;6.40;99.90
19892;DHT22;10108;50.142;8.724;2022-12-07T07:33:16;6.40;99.90
19892;DHT22;10108;50.142;8.724;2022-12-07T07:35:42;6.40;99.90
19892;DHT22;10108;50.142;8.724;2022-12-07T07:38:08;6.40;99.90
19892;DHT22;10108;50.142;8.724;2022-12-07T07:40:34;6.40;99.90
19892;DHT22;10108;50.142;8.724;2022-12-07T07:43:01;6.40;99.90
19892;DHT22;10108;50.142;8.724;2022-12-07T07:45:27;6.40;99.90
19892;DHT22;10108;50.142;8.724;2022-12-07T07:47:54;6.40;99.90
19892;DHT22;10108;50.142;8.724;2022-12-07T07:50:21;6.40;99.90
19892;DHT22;10108;50.142;8.724;2022-12-07T07:52:47;6.40;99.90
19892;DHT22;10108;50.142;8.724;2022-12-07T07:55:13;6.40;99.90
19892;DHT22;10108;50.142;8.724;2022-12-07T07:57:40;6.50;99.90
19892;DHT22;10108;50.142;8.724;2022-12-07T08:00:13;6.50;99.90
19892;DHT22;10108;50.142;8.724;2022-12-07T08:02:40;6.50;99.90
19892;DHT22;10108;50.142;8.724;2022-12-07T08:05:09;6.60;99.90
19892;DHT22;10108;50.142;8.724;2022-12-07T08:07:35;6.70;99.90
19892;DHT22;10108;50.142;8.724;2022-12-07T08:10:02;6.70;99.90
19892;DHT22;10108;50.142;8.724;2022-12-07T08:14:54;6.70;99.90
19892;DHT22;10108;50.142;8.724;2022-12-07T08:17:20;6.70;99.90
19892;DHT22;10108;50.142;8.724;2022-12-07T08:24:39;6.60;99.90
19892;DHT22;10108;50.142;8.724;2022-12-07T08:27:05;6.60;99.90
19892;DHT22;10108;50.142;8.724;2022-12-07T09:03:52;6.70;99.90
19892;DHT22;10108;50.142;8.724;2022-12-07T09:06:19;6.70;99.90
19892;DHT22;10108;50.142;8.724;2022-12-07T09:08:47;6.70;99.90
19892;DHT22;10108;50.142;8.724;2022-12-07T09:23:27;6.80;99.90
19892;DHT22;10108;50.142;8.724;2022-12-07T09:25:53;6.90;99.90
19892;DHT22;10108;50.142;8.724;2022-12-07T09:28:19;6.90;99.90
19892;DHT22;10108;50.142;8.724;2022-12-07T09:30:46;6.90;99.90
19892;DHT22;10108;50.142;8.724;2022-12-07T09:33:13;6.90;99.90
19892;DHT22;10108;50.142;8.724;2022-12-07T09:35:49;6.90;99.90
19892;DHT22;10108;50.142;8.724;2022-12-07T09:38:16;7.00;99.90
19892;DHT22;10108;50.142;8.724;2022-12-07T09:40:43;7.00;99.90
19892;DHT22;10108;50.142;8.724;2022-12-07T09:43:21;7.10;99.90
19892;DHT22;10108;50.142;8.724;2022-12-07T09:45:49;7.10;99.90
19892;DHT22;10108;50.142;8.724;2022-12-07T09:48:30;7.20;99.90
19892;DHT22;10108;50.142;8.724;2022-12-07T09:50:59;7.20;99.90
19892;DHT22;10108;50.142;8.724;2022-12-07T09:53:34;7.20;99.90
19892;DHT22;10108;50.142;8.724;2022-12-07T09:56:02;7.40;99.90
19892;DHT22;10108;50.142;8.724;2022-12-07T09:58:29;7.30;99.90
19892;DHT22;10108;50.142;8.724;2022-12-07T10:03:39;7.20;99.90
19892;DHT22;10108;50.142;8.724;2022-12-07T10:06:06;7.20;99.90
19892;DHT22;10108;50.142;8.724;2022-12-07T10:08:33;7.10;99.90
19892;DHT22;10108;50.142;8.724;2022-12-07T10:11:03;7.10;99.90
19892;DHT22;10108;50.142;8.724;2022-12-07T10:13:41;7.00;99.90
19892;DHT22;10108;50.142;8.724;2022-12-07T10:16:39;7.00;99.90
19892;DHT22;10108;50.142;8.724;2022-12-07T10:19:31;7.00;99.90
19892;DHT22;10108;50.142;8.724;2022-12-07T10:22:15;7.00;99.90
19892;DHT22;10108;50.142;8.724;2022-12-07T10:24:43;7.10;99.90
19892;DHT22;10108;50.142;8.724;2022-12-07T10:27:26;7.20;99.90
19892;DHT22;10108;50.142;8.724;2022-12-07T10:29:55;7.30;99.90
19892;DHT22;10108;50.142;8.724;2022-12-07T10:32:36;7.40;99.90
19892;DHT22;10108;50.142;8.724;2022-12-07T10:37:50;7.50;99.90
19892;DHT22;10108;50.142;8.724;2022-12-07T10:40:32;7.60;99.90
19892;DHT22;10108;50.142;8.724;2022-12-07T10:51:41;7.50;99.90
19892;DHT22;10108;50.142;8.724;2022-12-07T10:54:24;7.40;99.90
19892;DHT22;10108;50.142;8.724;2022-12-07T10:59:47;7.40;99.90
19892;DHT22;10108;50.142;8.724;2022-12-07T11:02:38;7.60;99.90
19892;DHT22;10108;50.142;8.724;2022-12-07T11:16:22;8.00;99.90
19892;DHT22;10108;50.142;8.724;2022-12-07T11:24:22;8.00;99.90
19892;DHT22;10108;50.142;8.724;2022-12-07T11:35:30;7.90;99.90
19892;DHT22;10108;50.142;8.724;2022-12-07T11:38:09;8.00;99.90
19892;DHT22;10108;50.142;8.724;2022-12-07T11:40:36;8.00;99.90
19892;DHT22;10108;50.142;8.724;2022-12-07T11:43:26;8.00;99.90
19892;DHT22;10108;50.142;8.724;2022-12-07T11:46:03;7.90;99.90
19892;DHT22;10108;50.142;8.724;2022-12-07T11:48:41;7.90;99.90
19892;DHT22;10108;50.142;8.724;2022-12-07T11:51:10;8.00;99.90
19892;DHT22;10108;50.142;8.724;2022-12-07T11:53:46;7.90;99.90
19892;DHT22;10108;50.142;8.724;2022-12-07T11:56:15;7.90;99.90
19892;DHT22;10108;50.142;8.724;2022-12-07T11:58:52;7.80;99.90
19892;DHT22;10108;50.142;8.724;2022-12-07T12:06:39;7.70;99.90
19892;DHT22;10108;50.142;8.724;2022-12-07T12:22:47;7.70;99.90
19892;DHT22;10108;50.142;8.724;2022-12-07T12:25:34;7.90;99.90
19892;DHT22;10108;50.142;8.724;2022-12-07T12:28:02;7.90;99.90
19892;DHT22;10108;50.142;8.724;2022-12-07T12:30:39;8.00;99.90
19892;DHT22;10108;50.142;8.724;2022-12-07T12:33:23;8.00;99.90
19892;DHT22;10108;50.142;8.724;2022-12-07T12:38:51;8.20;99.90
19892;DHT22;10108;50.142;8.724;2022-12-07T12:44:08;8.10;99.90
19892;DHT22;10108;50.142;8.724;2022-12-07T12:47:02;8.10;99.90
19892;DHT22;10108;50.142;8.724;2022-12-07T12:55:11;8.10;99.90
19892;DHT22;10108;50.142;8.724;2022-12-07T12:57:38;8.10;99.90
19892;DHT22;10108;50.142;8.724;2022-12-07T13:00:22;8.10;99.90
19892;DHT22;10108;50.142;8.724;2022-12-07T13:05:21;8.00;99.90
19892;DHT22;10108;50.142;8.724;2022-12-07T13:13:03;7.80;99.90
19892;DHT22;10108;50.142;8.724;2022-12-07T13:15:48;7.70;99.90
19892;DHT22;10108;50.142;8.724;2022-12-07T13:18:24;7.50;99.90
19892;DHT22;10108;50.142;8.724;2022-12-07T13:20:53;7.30;99.90
19892;DHT22;10108;50.142;8.724;2022-12-07T13:24:01;7.20;99.90
19892;DHT22;10108;50.142;8.724;2022-12-07T13:26:36;7.10;99.90
19892;DHT22;10108;50.142;8.724;2022-12-07T13:29:21;7.00;99.90
19892;DHT22;10108;50.142;8.724;2022-12-07T13:31:52;7.00;99.90
19892;DHT22;10108;50.142;8.724;2022-12-07T13:34:40;7.00;99.90
19892;DHT22;10108;50.142;8.724;2022-12-07T13:37:15;7.10;99.90
19892;DHT22;10108;50.142;8.724;2022-12-07T13:42:28;7.20;99.90
19892;DHT22;10108;50.142;8.724;2022-12-07T13:44:56;7.20;99.90
19892;DHT22;10108;50.142;8.724;2022-12-07T13:47:39;7.20;99.90
19892;DHT22;10108;50.142;8.724;2022-12-07T13:50:28;7.30;99.90
19892;DHT22;10108;50.142;8.724;2022-12-07T13:52:57;7.30;99.90
19892;DHT22;10108;50.142;8.724;2022-12-07T13:55:23;7.40;99.90
19892;DHT22;10108;50.142;8.724;2022-12-07T13:57:52;7.50;99.90
19892;DHT22;10108;50.142;8.724;2022-12-07T14:00:23;7.50;99.90
19892;DHT22;10108;50.142;8.724;2022-12-07T14:03:01;7.50;99.90
19892;DHT22;10108;50.142;8.724;2022-12-07T14:05:28;7.50;99.90
19892;DHT22;10108;50.142;8.724;2022-12-07T14:10:30;7.50;99.90
19892;DHT22;10108;50.142;8.724;2022-12-07T14:12:57;7.50;99.90
19892;DHT22;10108;50.142;8.724;2022-12-07T14:15:34;7.50;99.90
19892;DHT22;10108;50.142;8.724;2022-12-07T14:18:02;7.50;99.90
19892;DHT22;10108;50.142;8.724;2022-12-07T14:20:39;7.50;99.90
19892;DHT22;10108;50.142;8.724;2022-12-07T14:23:26;7.50;99.90
19892;DHT22;10108;50.142;8.724;2022-12-07T14:25:53;7.50;99.90
19892;DHT22;10108;50.142;8.724;2022-12-07T14:28:27;7.50;99.90
19892;DHT22;10108;50.142;8.724;2022-12-07T14:30:54;7.60;99.90
19892;DHT22;10108;50.142;8.724;2022-12-07T14:33:20;7.60;99.90
19892;DHT22;10108;50.142;8.724;2022-12-07T14:35:47;7.60;99.90
19892;DHT22;10108;50.142;8.724;2022-12-07T14:38:13;7.60;99.90
19892;DHT22;10108;50.142;8.724;2022-12-07T14:40:39;7.60;99.90
19892;DHT22;10108;50.142;8.724;2022-12-07T14:43:10;7.60;99.90
19892;DHT22;10108;50.142;8.724;2022-12-07T14:45:40;7.60;99.90
19892;DHT22;10108;50.142;8.724;2022-12-07T14:48:11;7.60;99.90
19892;DHT22;10108;50.142;8.724;2022-12-07T14:50:49;7.60;99.90
19892;DHT22;10108;50.142;8.724;2022-12-07T14:53:18;7.60;99.90
19892;DHT22;10108;50.142;8.724;2022-12-07T14:55:47;7.60;99.90
19892;DHT22;10108;50.142;8.724;2022-12-07T14:58:17;7.50;99.90
19892;DHT22;10108;50.142;8.724;2022-12-07T15:00:44;7.40;99.90
19892;DHT22;10108;50.142;8.724;2022-12-07T15:03:10;7.30;99.90
19892;DHT22;10108;50.142;8.724;2022-12-07T15:05:39;7.30;99.90
19892;DHT22;10108;50.142;8.724;2022-12-07T15:08:05;7.20;99.90
19892;DHT22;10108;50.142;8.724;2022-12-07T15:10:33;7.20;99.90
19892;DHT22;10108;50.142;8.724;2022-12-07T15:13:01;7.10;99.90
19892;DHT22;10108;50.142;8.724;2022-12-07T15:15:47;7.10;99.90
19892;DHT22;10108;50.142;8.724;2022-12-07T15:18:14;7.00;99.90
19892;DHT22;10108;50.142;8.724;2022-12-07T15:20:40;7.00;99.90
19892;DHT22;10108;50.142;8.724;2022-12-07T15:23:07;7.00;99.90
19892;DHT22;10108;50.142;8.724;2022-12-07T15:25:33;7.00;99.90
19892;DHT22;10108;50.142;8.724;2022-12-07T15:27:59;7.00;99.90
19892;DHT22;10108;50.142;8.724;2022-12-07T15:30:25;7.00;99.90
19892;DHT22;10108;50.142;8.724;2022-12-07T15:32:52;7.00;99.90
19892;DHT22;10108;50.142;8.724;2022-12-07T15:35:19;7.00;99.90
19892;DHT22;10108;50.142;8.724;2022-12-07T15:37:45;7.00;99.90
19892;DHT22;10108;50.142;8.724;2022-12-07T15:40:12;7.00;99.90
19892;DHT22;10108;50.142;8.724;2022-12-07T15:42:39;7.00;99.90
19892;DHT22;10108;50.142;8.724;2022-12-07T15:45:06;7.00;99.90
19892;DHT22;10108;50.142;8.724;2022-12-07T15:47:43;7.00;99.90
19892;DHT22;10108;50.142;8.724;2022-12-07T15:50:14;7.00;99.90
19892;DHT22;10108;50.142;8.724;2022-12-07T15:52:41;7.00;99.90
19892;DHT22;10108;50.142;8.724;2022-12-07T15:55:08;7.00;99.90
19892;DHT22;10108;50.142;8.724;2022-12-07T15:57:36;7.00;99.90
19892;DHT22;10108;50.142;8.724;2022-12-07T16:00:04;7.00;99.90
19892;DHT22;10108;50.142;8.724;2022-12-07T16:02:30;7.00;99.90
19892;DHT22;10108;50.142;8.724;2022-12-07T16:04:57;7.10;99.90
19892;DHT22;10108;50.142;8.724;2022-12-07T16:07:23;7.00;99.90
19892;DHT22;10108;50.142;8.724;2022-12-07T16:09:49;7.00;99.90
19892;DHT22;10108;50.142;8.724;2022-12-07T16:12:15;7.00;99.90
19892;DHT22;10108;50.142;8.724;2022-12-07T16:14:42;7.00;99.90
19892;DHT22;10108;50.142;8.724;2022-12-07T16:17:09;7.10;99.90
19892;DHT22;10108;50.142;8.724;2022-12-07T16:19:36;7.00;99.90
19892;DHT22;10108;50.142;8.724;2022-12-07T16:22:04;7.00;99.90
19892;DHT22;10108;50.142;8.724;2022-12-07T16:24:31;7.10;99.90
19892;DHT22;10108;50.142;8.724;2022-12-07T16:26:57;7.00;99.90
19892;DHT22;10108;50.142;8.724;2022-12-07T16:29:23;7.00;99.90
19892;DHT22;10108;50.142;8.724;2022-12-07T16:31:51;7.00;99.90
19892;DHT22;10108;50.142;8.724;2022-12-07T16:34:17;7.10;99.90
19892;DHT22;10108;50.142;8.724;2022-12-07T16:36:43;7.00;99.90
19892;DHT22;10108;50.142;8.724;2022-12-07T16:39:10;7.00;99.90
19892;DHT22;10108;50.142;8.724;2022-12-07T16:41:36;7.10;99.90
19892;DHT22;10108;50.142;8.724;2022-12-07T16:44:04;7.10;99.90
19892;DHT22;10108;50.142;8.724;2022-12-07T16:46:35;7.00;99.90
19892;DHT22;10108;50.142;8.724;2022-12-07T16:49:01;7.00;99.90
19892;DHT22;10108;50.142;8.724;2022-12-07T16:51:28;7.00;99.90
19892;DHT22;10108;50.142;8.724;2022-12-07T16:53:55;6.90;99.90
19892;DHT22;10108;50.142;8.724;2022-12-07T16:56:21;6.90;99.90
19892;DHT22;10108;50.142;8.724;2022-12-07T16:58:47;7.00;99.90
19892;DHT22;10108;50.142;8.724;2022-12-07T17:01:19;7.00;99.90
19892;DHT22;10108;50.142;8.724;2022-12-07T17:03:46;7.00;99.90
19892;DHT22;10108;50.142;8.724;2022-12-07T17:06:15;7.00;99.90
19892;DHT22;10108;50.142;8.724;2022-12-07T17:08:42;7.00;99.90
19892;DHT22;10108;50.142;8.724;2022-12-07T17:11:20;7.00;99.90
19892;DHT22;10108;50.142;8.724;2022-12-07T17:13:48;7.00;99.90
19892;DHT22;10108;50.142;8.724;2022-12-07T17:16:33;7.00;99.90
19892;DHT22;10108;50.142;8.724;2022-12-07T17:19:04;6.90;99.90
19892;DHT22;10108;50.142;8.724;2022-12-07T17:21:31;6.90;99.90
19892;DHT22;10108;50.142;8.724;2022-12-07T17:24:02;6.90;99.90
19892;DHT22;10108;50.142;8.724;2022-12-07T17:26:29;6.90;99.90
19892;DHT22;10108;50.142;8.724;2022-12-07T17:28:56;6.90;99.90
19892;DHT22;10108;50.142;8.724;2022-12-07T17:31:23;6.90;99.90
19892;DHT22;10108;50.142;8.724;2022-12-07T17:33:49;6.90;99.90
19892;DHT22;10108;50.142;8.724;2022-12-07T17:36:21;6.90;99.90
19892;DHT22;10108;50.142;8.724;2022-12-07T17:38:49;6.90;99.90
19892;DHT22;10108;50.142;8.724;2022-12-07T17:41:18;7.00;99.90
19892;DHT22;10108;50.142;8.724;2022-12-07T17:44:05;6.90;99.90
19892;DHT22;10108;50.142;8.724;2022-12-07T17:46:31;6.90;99.90
19892;DHT22;10108;50.142;8.724;2022-12-07T17:48:58;6.90;99.90
19892;DHT22;10108;50.142;8.724;2022-12-07T17:51:24;6.90;99.90
19892;DHT22;10108;50.142;8.724;2022-12-07T17:54:10;6.80;99.90
19892;DHT22;10108;50.142;8.724;2022-12-07T17:56:36;6.80;99.90
19892;DHT22;10108;50.142;8.724;2022-12-07T17:59:03;6.90;99.90
19892;DHT22;10108;50.142;8.724;2022-12-07T18:01:30;6.90;99.90
19892;DHT22;10108;50.142;8.724;2022-12-07T18:03:56;6.90;99.90
19892;DHT22;10108;50.142;8.724;2022-12-07T18:06:22;6.90;99.90
19892;DHT22;10108;50.142;8.724;2022-12-07T18:08:48;6.80;99.90
19892;DHT22;10108;50.142;8.724;2022-12-07T18:11:15;6.80;99.90
19892;DHT22;10108;50.142;8.724;2022-12-07T18:13:41;6.80;99.90
19892;DHT22;10108;50.142;8.724;2022-12-07T18:16:10;6.70;99.90
19892;DHT22;10108;50.142;8.724;2022-12-07T18:18:38;6.70;99.90
19892;DHT22;10108;50.142;8.724;2022-12-07T18:21:10;6.70;99.90
19892;DHT22;10108;50.142;8.724;2022-12-07T18:23:40;6.70;99.90
19892;DHT22;10108;50.142;8.724;2022-12-07T18:26:06;6.70;99.90
19892;DHT22;10108;50.142;8.724;2022-12-07T18:28:32;6.60;99.90
19892;DHT22;10108;50.142;8.724;2022-12-07T18:30:58;6.70;99.90
19892;DHT22;10108;50.142;8.724;2022-12-07T18:33:24;6.60;99.90
19892;DHT22;10108;50.142;8.724;2022-12-07T18:35:50;6.60;99.90
19892;DHT22;10108;50.142;8.724;2022-12-07T18:38:17;6.60;99.90
19892;DHT22;10108;50.142;8.724;2022-12-07T18:40:44;6.60;99.90
19892;DHT22;10108;50.142;8.724;2022-12-07T18:43:10;6.60;99.90
19892;DHT22;10108;50.142;8.724;2022-12-07T18:45:38;6.60;99.90
19892;DHT22;10108;50.142;8.724;2022-12-07T18:48:05;6.60;99.90
19892;DHT22;10108;50.142;8.724;2022-12-07T18:50:31;6.70;99.90